Time;durP1;ratioP1;P1;durP2;ratioP2;P2;SDS_P1;SDS_P2;PMS_P1;PMS_P2;Temp;Humidity;BMP_temperature;BMP_pressure;BME280_temperature;BME280_humidity;BME280_pressure;Samples;Min_cycle;Max_cycle;Signal;HPM_P1;HPM_P2
2023/09/25 00:08:38;;;;;;;36.83;14.85;;;;;;;25.14;51.45;101179.59;21077839;28;20036;-58
2023/09/25 00:18:42;;;;;;;37.53;13.88;;;;;;;24.74;51.36;101115.53;21085124;28;20530;-59
2023/09/25 00:28:45;;;;;;;42.17;15.57;;;;;;;25.14;51.42;101186.03;21066887;28;20048;-60
2023/09/25 00:38:47;;;;;;;36.83;15.57;;;;;;;25.12;51.37;101182.72;21074820;28;20055;-59
2023/09/25 00:48:48;;;;;;;29.38;14.65;;;;;;;25.13;51.58;101191.94;21085807;28;20071;-59
2023/09/25 00:58:53;;;;;;;28.65;12.65;;;;;;;25.13;51.60;101201.19;21079823;28;20058;-60
2023/09/25 01:08:55;;;;;;;33.78;14.13;;;;;;;25.12;51.69;101191.13;21052192;28;20045;-59
2023/09/25 01:18:57;;;;;;;32.05;13.13;;;;;;;25.12;51.84;101193.09;20999776;28;20052;-60
2023/09/25 01:28:58;;;;;;;28.55;12.38;;;;;;;25.11;52.20;101197.88;21077638;28;20074;-60
2023/09/25 01:38:59;;;;;;;29.45;11.65;;;;;;;25.12;52.41;101210.72;21081838;28;20052;-60
2023/09/25 01:49:01;;;;;;;29.83;12.27;;;;;;;25.13;52.13;101209.59;21081893;28;20028;-64
2023/09/25 01:59:02;;;;;;;30.73;12.77;;;;;;;25.10;52.60;101212.97;21078902;28;20402;-59
2023/09/25 02:09:06;;;;;;;29.33;11.02;;;;;;;25.04;52.80;101191.78;21078963;28;20047;-59
2023/09/25 02:19:08;;;;;;;25.25;10.68;;;;;;;25.08;53.47;101201.25;21069531;28;20059;-60
2023/09/25 02:29:10;;;;;;;27.65;10.52;;;;;;;25.11;55.31;101192.28;21076500;28;20101;-58
2023/09/25 02:39:13;;;;;;;22.08;10.25;;;;;;;25.15;56.53;101193.28;21077347;28;20043;-60
2023/09/25 02:49:14;;;;;;;19.50;9.02;;;;;;;25.15;56.94;101187.69;21065328;28;20041;-60
2023/09/25 02:59:18;;;;;;;21.40;8.73;;;;;;;25.15;56.83;101196.09;21018121;28;20048;-59
2023/09/25 03:09:19;;;;;;;18.92;9.25;;;;;;;25.16;56.86;101188.56;21057985;28;20479;-59
2023/09/25 03:19:21;;;;;;;18.10;9.25;;;;;;;25.16;56.54;101183.78;21068938;28;20093;-59
2023/09/25 03:29:22;;;;;;;18.63;8.23;;;;;;;25.15;56.10;101175.66;21052399;28;20044;-59
2023/09/25 03:39:33;;;;;;;20.65;8.13;;;;;;;25.16;55.71;101171.75;21045603;28;20101;-59
2023/09/25 03:49:34;;;;;;;18.40;7.57;;;;;;;25.16;55.51;101172.59;21075272;28;20060;-59
2023/09/25 03:59:38;;;;;;;15.23;7.53;;;;;;;25.16;55.63;101164.19;21081046;28;20052;-59
2023/09/25 04:09:39;;;;;;;16.65;7.50;;;;;;;25.08;55.44;101148.06;21090247;28;20036;-59
2023/09/25 04:19:41;;;;;;;15.10;7.30;;;;;;;25.16;55.31;101150.19;21087511;28;20044;-59
2023/09/25 04:29:43;;;;;;;15.93;7.18;;;;;;;25.15;55.38;101145.69;21088007;28;20032;-59
2023/09/25 04:39:44;;;;;;;14.07;7.13;;;;;;;25.14;54.98;101149.63;21087811;28;20048;-59
2023/09/25 04:49:46;;;;;;;15.32;7.40;;;;;;;25.15;54.91;101147.66;21087352;28;20395;-60
2023/09/25 04:59:47;;;;;;;15.75;7.00;;;;;;;25.15;54.77;101153.25;21086542;28;20024;-59
2023/09/25 05:09:49;;;;;;;11.68;6.30;;;;;;;25.08;54.90;101142.47;21084558;28;20391;-60
2023/09/25 05:19:51;;;;;;;9.88;5.70;;;;;;;25.15;54.90;101156.06;21084960;28;20044;-58
2023/09/25 05:29:52;;;;;;;13.10;6.13;;;;;;;25.14;54.68;101160.84;21084033;28;20039;-59
2023/09/25 05:39:56;;;;;;;12.50;6.22;;;;;;;25.13;54.44;101167.59;21082757;28;20425;-59
2023/09/25 05:49:58;;;;;;;11.70;5.88;;;;;;;25.14;54.56;101160.84;21082172;28;20062;-59
2023/09/25 06:00:12;;;;;;;11.77;5.95;;;;;;;25.13;54.56;101159.19;21080609;28;20105;-58
2023/09/25 06:10:13;;;;;;;10.40;5.50;;;;;;;25.13;54.42;101156.38;21075911;28;20047;-58
2023/09/25 06:20:15;;;;;;;7.90;5.18;;;;;;;25.12;54.08;101149.13;21074418;28;20445;-58
2023/09/25 06:30:19;;;;;;;10.48;4.85;;;;;;;25.13;54.31;101147.97;21079796;28;20074;-60
2023/09/25 06:40:21;;;;;;;9.90;5.07;;;;;;;25.13;54.23;101133.97;21078595;28;20105;-60
2023/09/25 06:50:23;;;;;;;7.93;4.88;;;;;;;25.13;54.11;101127.53;21077371;28;20436;-59
2023/09/25 07:00:25;;;;;;;9.23;4.93;;;;;;;25.13;53.91;101133.16;21081595;28;20043;-59
2023/09/25 07:10:26;;;;;;;8.93;4.95;;;;;;;25.10;54.00;101129.81;21071346;28;20040;-60
2023/09/25 07:20:29;;;;;;;8.13;4.55;;;;;;;25.13;54.18;101136.78;21068427;28;20085;-59
2023/09/25 07:30:31;;;;;;;8.43;4.35;;;;;;;25.12;53.98;101137.09;21072870;28;20048;-60
2023/09/25 07:40:32;;;;;;;7.88;4.15;;;;;;;25.12;53.89;101149.13;21087883;28;20051;-60
2023/09/25 07:50:34;;;;;;;6.65;4.05;;;;;;;25.12;53.92;101151.09;21083486;28;20040;-60
2023/09/25 08:00:39;;;;;;;6.45;3.67;;;;;;;25.11;54.03;101141.88;21083742;28;20036;-59
2023/09/25 08:10:43;;;;;;;7.22;3.92;;;;;;;25.10;54.01;101149.41;21088043;28;20094;-60
2023/09/25 08:20:45;;;;;;;7.65;3.97;;;;;;;25.10;53.92;101155.00;21089467;28;20056;-60
2023/09/25 08:30:47;;;;;;;5.95;3.75;;;;;;;24.99;53.69;101138.66;21088723;28;20074;-59
2023/09/25 08:40:49;;;;;;;6.80;3.83;;;;;;;25.08;53.73;101154.50;21087929;28;20104;-59
2023/09/25 08:50:51;;;;;;;6.15;3.30;;;;;;;25.08;53.64;101170.47;21086840;28;20043;-59
2023/09/25 09:00:53;;;;;;;6.18;3.67;;;;;;;25.10;53.39;101179.38;21086346;28;20044;-58
2023/09/25 09:10:55;;;;;;;5.45;3.28;;;;;;;25.06;53.74;101175.47;21078926;28;20040;-57
2023/09/25 09:20:56;;;;;;;4.88;2.75;;;;;;;25.07;53.58;101185.56;21081581;28;20064;-60
2023/09/25 09:31:01;;;;;;;5.95;3.13;;;;;;;25.08;53.46;101195.66;21083839;28;20040;-60
2023/09/25 09:41:06;;;;;;;4.32;3.05;;;;;;;25.09;53.61;101200.13;21077887;28;20044;-60
2023/09/25 09:51:12;;;;;;;4.82;2.80;;;;;;;25.04;53.25;101194.56;21076153;28;20406;-59
2023/09/25 10:01:17;;;;;;;4.97;2.80;;;;;;;25.07;53.32;101207.97;21078567;28;20044;-58
2023/09/25 10:11:24;;;;;;;5.70;2.95;;;;;;;25.04;53.18;101202.97;21075235;28;20554;-59
2023/09/25 10:21:25;;;;;;;4.07;2.72;;;;;;;25.08;53.38;101218.06;21074377;28;20048;-59
2023/09/25 10:31:31;;;;;;;3.83;2.60;;;;;;;25.07;53.20;101224.78;21073672;28;20407;-59
2023/09/25 10:41:32;;;;;;;4.03;2.65;;;;;;;25.07;53.64;101249.97;21077415;28;20040;-58
2023/09/25 10:51:35;;;;;;;2.88;2.15;;;;;;;25.07;53.14;101252.78;21070919;28;20039;-58
2023/09/25 11:01:37;;;;;;;3.00;2.17;;;;;;;24.96;53.39;101240.03;21073950;28;20048;-60
2023/09/25 11:11:40;;;;;;;4.32;2.58;;;;;;;25.06;53.18;101268.75;21073204;28;20552;-60
2023/09/25 11:21:47;;;;;;;2.90;2.10;;;;;;;25.04;53.14;101285.00;21072178;28;20052;-59
2023/09/25 11:31:50;;;;;;;2.75;1.95;;;;;;;25.00;53.37;101286.72;21071953;28;20097;-61
2023/09/25 11:41:51;;;;;;;2.63;1.80;;;;;;;25.04;53.09;101309.38;21074343;28;20396;-59
2023/09/25 11:51:53;;;;;;;3.13;1.75;;;;;;;25.05;53.23;101316.63;21063967;28;20036;-59
2023/09/25 12:01:54;;;;;;;3.03;2.05;;;;;;;25.04;53.33;101337.38;21072905;28;20105;-59
2023/09/25 12:11:56;;;;;;;2.88;1.98;;;;;;;25.04;53.14;101337.38;21072820;28;20564;-59
2023/09/25 12:21:57;;;;;;;4.20;2.17;;;;;;;25.05;53.20;101347.44;21045935;28;20113;-58
2023/09/25 12:31:59;;;;;;;2.85;1.85;;;;;;;25.04;53.14;101355.00;21041665;28;20036;-59
2023/09/25 12:42:00;;;;;;;2.38;1.80;;;;;;;25.01;53.11;101363.16;21063710;28;20058;-60
2023/09/25 12:52:02;;;;;;;3.35;1.75;;;;;;;25.03;53.31;101372.09;21077185;28;20044;-59
2023/09/25 13:02:03;;;;;;;5.82;1.83;;;;;;;25.03;53.38;101381.34;21006370;28;20037;-59
2023/09/25 13:12:05;;;;;;;2.15;1.45;;;;;;;25.05;53.20;101378.22;21000693;28;20048;-60
2023/09/25 13:22:08;;;;;;;2.47;1.50;;;;;;;25.04;53.30;101387.78;20998990;28;20045;-59
2023/09/25 13:32:09;;;;;;;2.75;1.70;;;;;;;25.04;53.27;101407.38;20999246;28;20357;-60
2023/09/25 13:42:11;;;;;;;3.17;1.90;;;;;;;25.04;53.31;101421.38;21068826;28;20078;-61
2023/09/25 13:52:13;;;;;;;3.13;1.33;;;;;;;25.05;53.24;101431.44;21067383;28;20391;-59
2023/09/25 14:02:14;;;;;;;4.50;1.80;;;;;;;25.03;53.08;101426.13;21067482;28;20056;-59
2023/09/25 14:12:15;;;;;;;5.38;1.60;;;;;;;25.05;53.29;101437.03;21075421;28;20560;-59
2023/09/25 14:22:19;;;;;;;2.70;1.33;;;;;;;25.03;53.32;101444.91;21060297;28;20086;-59
2023/09/25 14:32:23;;;;;;;4.97;1.73;;;;;;;25.03;53.52;101453.31;21074906;28;20121;-59
2023/09/25 14:42:28;;;;;;;2.97;1.58;;;;;;;25.03;53.60;101462.53;21074090;28;20047;-59
2023/09/25 14:52:30;;;;;;;4.10;1.70;;;;;;;25.02;53.47;101482.44;21065167;28;20025;-60
2023/09/25 15:02:32;;;;;;;2.28;1.50;;;;;;;25.03;53.64;101475.72;21061730;28;20132;-60
2023/09/25 15:12:33;;;;;;;2.90;1.50;;;;;;;25.03;53.68;101484.09;21042700;28;20044;-60
2023/09/25 15:22:37;;;;;;;3.22;1.50;;;;;;;25.03;53.73;101498.09;21064073;28;20658;-60
2023/09/25 15:32:39;;;;;;;3.42;1.45;;;;;;;25.02;53.75;101508.47;21057736;28;20040;-61
2023/09/25 15:42:43;;;;;;;8.82;2.15;;;;;;;25.03;54.17;101517.72;21043132;28;20799;-60
2023/09/25 15:52:44;;;;;;;4.75;1.60;;;;;;;25.03;54.24;101526.09;21073718;28;20085;-61
2023/09/25 16:02:45;;;;;;;3.92;1.45;;;;;;;25.03;54.33;101545.72;21087206;28;20060;-60
2023/09/25 16:12:50;;;;;;;3.13;1.20;;;;;;;25.03;54.43;101554.09;21081931;28;20048;-60
2023/09/25 16:22:51;;;;;;;3.15;1.48;;;;;;;25.04;54.43;101564.19;21043711;28;20044;-59
2023/09/25 16:32:53;;;;;;;3.25;1.58;;;;;;;25.04;54.56;101570.59;21083728;28;20479;-60
2023/09/25 16:42:55;;;;;;;3.15;1.48;;;;;;;25.05;54.56;101585.44;21077737;28;20044;-60
2023/09/25 16:52:59;;;;;;;2.80;1.30;;;;;;;25.06;54.56;101587.09;21078317;28;20066;-60
2023/09/25 17:03:00;;;;;;;1.77;1.13;;;;;;;25.06;54.39;101589.91;21079701;28;20348;-60
2023/09/25 17:13:03;;;;;;;3.65;1.25;;;;;;;25.07;54.63;101611.19;21059665;28;20048;-61
2023/09/25 17:23:04;;;;;;;2.13;1.25;;;;;;;25.06;54.55;101615.97;21036177;28;20041;-60
2023/09/25 17:33:06;;;;;;;2.55;1.17;;;;;;;25.08;54.54;101612.91;21037693;28;20040;-59
2023/09/25 17:43:08;;;;;;;3.45;1.17;;;;;;;25.03;54.58;101610.94;21081701;28;20036;-60
2023/09/25 17:53:12;;;;;;;3.08;1.20;;;;;;;25.07;54.26;101620.47;21081218;28;20044;-61
2023/09/25 18:03:13;;;;;;;1.60;1.42;;;;;;;25.08;54.21;101612.91;21080402;28;20028;-61
2023/09/25 18:13:19;;;;;;;4.60;1.80;;;;;;;25.07;54.07;101628.00;21079804;28;20400;-61
2023/09/25 18:23:21;;;;;;;3.33;0.80;;;;;;;25.07;54.16;101622.41;21078190;28;20052;-61
2023/09/25 18:33:25;;;;;;;2.70;1.10;;;;;;;25.07;53.94;101623.28;21078560;28;20032;-60
2023/09/25 18:43:27;;;;;;;2.35;1.08;;;;;;;25.05;53.94;101631.06;21077607;28;20040;-61
2023/09/25 18:53:28;;;;;;;2.53;1.48;;;;;;;25.08;53.83;101646.50;21076866;28;20059;-61
2023/09/25 19:03:29;;;;;;;1.80;1.27;;;;;;;25.04;54.04;101660.22;21077452;28;20036;-61
2023/09/25 19:13:31;;;;;;;1.60;1.08;;;;;;;25.07;53.80;101684.00;21075893;28;20032;-61
2023/09/25 19:23:36;;;;;;;2.42;1.15;;;;;;;25.07;53.75;101684.88;21075428;28;20048;-61
2023/09/25 19:33:37;;;;;;;2.50;1.00;;;;;;;25.06;53.78;101693.50;21089501;28;20040;-61
2023/09/25 19:43:39;;;;;;;1.48;0.90;;;;;;;25.05;53.61;101697.44;21092605;28;20040;-60
2023/09/25 19:53:40;;;;;;;2.03;0.80;;;;;;;25.07;53.82;101745.63;21092002;28;20379;-60
2023/09/25 20:03:42;;;;;;;1.17;0.70;;;;;;;25.04;53.65;101758.22;21090681;28;20048;-61
2023/09/25 20:13:43;;;;;;;2.20;1.10;;;;;;;25.06;53.28;101749.53;21090022;28;20074;-62
2023/09/25 20:23:46;;;;;;;1.63;1.10;;;;;;;25.05;53.31;101770.25;21090031;28;20097;-60
2023/09/25 20:33:47;;;;;;;2.50;1.00;;;;;;;25.05;53.45;101778.66;21088583;28;20040;-60
2023/09/25 20:43:48;;;;;;;1.42;0.82;;;;;;;25.05;53.52;101781.47;21087222;28;20052;-60
2023/09/25 20:53:50;;;;;;;1.83;1.27;;;;;;;24.95;53.26;101790.75;21087072;28;20036;-60
2023/09/25 21:03:51;;;;;;;2.83;1.20;;;;;;;25.04;53.18;101833.00;21086409;28;20101;-60
2023/09/25 21:13:53;;;;;;;1.40;0.80;;;;;;;25.03;53.38;101843.38;21085677;28;20105;-61
2023/09/25 21:23:59;;;;;;;1.17;0.90;;;;;;;25.02;53.06;101841.69;21084395;28;20044;-61
2023/09/25 21:34:00;;;;;;;1.08;0.88;;;;;;;25.01;53.26;101864.38;21083494;28;20055;-61
2023/09/25 21:44:02;;;;;;;2.30;1.30;;;;;;;25.02;53.25;101866.06;21080711;28;20077;-61
2023/09/25 21:54:05;;;;;;;1.95;0.93;;;;;;;24.76;53.00;101832.56;21035106;28;20044;-60
2023/09/25 22:04:09;;;;;;;1.77;1.30;;;;;;;24.99;53.17;101861.03;21027481;28;20102;-60
2023/09/25 22:14:12;;;;;;;3.35;1.70;;;;;;;24.98;53.10;101854.59;21025888;28;20044;-60
2023/09/25 22:24:15;;;;;;;2.13;1.63;;;;;;;24.99;52.98;101869.44;21079933;28;20051;-60
2023/09/25 22:34:17;;;;;;;1.95;1.50;;;;;;;24.98;53.17;101882.59;21077455;28;20047;-60
2023/09/25 22:44:18;;;;;;;1.73;1.42;;;;;;;24.97;53.15;101885.66;21072747;28;20071;-60
2023/09/25 22:54:20;;;;;;;2.25;1.63;;;;;;;24.96;53.11;101876.44;21017886;28;20095;-60
2023/09/25 23:04:21;;;;;;;2.05;1.70;;;;;;;24.96;53.11;101889.59;21038432;28;20058;-60
2023/09/25 23:14:24;;;;;;;1.80;1.33;;;;;;;24.97;53.04;101896.84;21032032;28;20449;-61
2023/09/25 23:24:25;;;;;;;2.50;1.80;;;;;;;24.95;52.90;101902.75;21072989;28;20048;-60
2023/09/25 23:34:28;;;;;;;2.00;1.80;;;;;;;24.91;52.90;101920.41;21061657;28;20495;-61
2023/09/25 23:44:30;;;;;;;3.53;2.20;;;;;;;24.79;52.90;101906.75;21036132;28;20048;-60
2023/09/25 23:54:37;;;;;;;3.03;2.28;;;;;;;24.90;53.23;101958.78;20991256;28;20037;-60
